Time;durP1;ratioP1;P1;durP2;ratioP2;P2;SDS_P1;SDS_P2;PMS_P1;PMS_P2;Temp;Humidity;BMP_temperature;BMP_pressure;BME280_temperature;BME280_humidity;BME280_pressure;Samples;Min_cycle;Max_cycle;Signal;HPM_P1;HPM_P2
2022/03/17 00:00:14;;;;;;;27.75;18.67;;;10.10;99.90;;;;;;5072144;28;20044;-49
2022/03/17 00:02:40;;;;;;;26.73;17.80;;;10.20;99.90;;;;;;5073804;28;20036;-51
2022/03/17 00:05:11;;;;;;;31.08;18.77;;;10.10;99.90;;;;;;5060242;28;20132;-49
2022/03/17 00:07:40;;;;;;;25.67;17.05;;;10.10;99.90;;;;;;5052448;28;20048;-48
2022/03/17 00:10:08;;;;;;;29.80;18.65;;;10.10;99.90;;;;;;5053679;28;20037;-51
2022/03/17 00:12:34;;;;;;;30.17;19.02;;;10.10;99.90;;;;;;5053488;28;20048;-49
2022/03/17 00:15:00;;;;;;;27.67;18.15;;;10.10;99.90;;;;;;5053357;28;20045;-51
2022/03/17 00:17:26;;;;;;;26.67;18.08;;;10.10;99.90;;;;;;5053326;28;20036;-48
2022/03/17 00:19:53;;;;;;;27.45;19.10;;;10.10;99.90;;;;;;5053328;28;20457;-49
2022/03/17 00:22:19;;;;;;;28.55;17.88;;;10.10;99.90;;;;;;5053211;28;20080;-50
2022/03/17 00:24:46;;;;;;;26.20;17.48;;;10.10;99.90;;;;;;5053141;28;20076;-49
2022/03/17 00:27:12;;;;;;;28.08;18.48;;;10.10;99.90;;;;;;5053061;28;20056;-52
2022/03/17 00:29:39;;;;;;;29.42;19.25;;;10.10;99.90;;;;;;5053314;28;20037;-51
2022/03/17 00:32:05;;;;;;;30.17;18.55;;;10.10;99.90;;;;;;5051892;28;20045;-51
2022/03/17 00:34:31;;;;;;;31.95;19.17;;;10.10;99.90;;;;;;5053021;28;20053;-49
2022/03/17 00:36:57;;;;;;;29.27;17.73;;;10.00;99.90;;;;;;5053132;28;20040;-48
2022/03/17 00:39:23;;;;;;;28.25;18.05;;;10.10;99.90;;;;;;5052909;28;20123;-52
2022/03/17 00:41:49;;;;;;;29.67;18.23;;;10.00;99.90;;;;;;5051742;28;20045;-51
2022/03/17 00:44:15;;;;;;;29.83;19.10;;;10.00;99.90;;;;;;5052765;28;20052;-48
2022/03/17 00:46:41;;;;;;;30.77;19.58;;;10.00;99.90;;;;;;5051273;28;20041;-49
2022/03/17 00:49:07;;;;;;;29.25;18.58;;;10.00;99.90;;;;;;5052551;28;20728;-50
2022/03/17 00:51:34;;;;;;;28.42;19.10;;;10.10;99.90;;;;;;5052808;28;20041;-51
2022/03/17 00:53:59;;;;;;;30.83;19.10;;;10.00;99.90;;;;;;5052623;28;20112;-51
2022/03/17 01:12:50;;;;;;;32.88;19.38;;;10.00;99.90;;;;;;4903589;23;20063;-58
2022/03/17 01:15:31;;;;;;;29.17;19.40;;;10.00;99.90;;;;;;4948901;29;20042;-58
2022/03/17 01:17:57;;;;;;;28.27;19.45;;;10.00;99.90;;;;;;4951074;29;20078;-58
2022/03/17 01:20:23;;;;;;;32.85;20.50;;;10.00;99.90;;;;;;4957782;28;20039;-58
2022/03/17 01:22:49;;;;;;;30.38;18.77;;;10.00;99.90;;;;;;4945027;29;20048;-58
2022/03/17 01:25:15;;;;;;;30.55;20.13;;;10.00;99.90;;;;;;4952090;28;20123;-58
2022/03/17 01:27:40;;;;;;;29.98;18.77;;;10.00;99.90;;;;;;4963213;28;20061;-58
2022/03/17 01:30:09;;;;;;;31.42;20.92;;;10.00;99.90;;;;;;4962980;28;20079;-58
2022/03/17 01:32:37;;;;;;;29.73;19.33;;;10.00;99.90;;;;;;4960845;28;20047;-59
2022/03/17 01:35:05;;;;;;;29.88;20.35;;;10.00;99.90;;;;;;4944646;28;20055;-58
2022/03/17 01:37:31;;;;;;;29.10;19.13;;;10.00;99.90;;;;;;4942768;29;20043;-56
2022/03/17 01:39:56;;;;;;;32.17;21.17;;;10.00;99.90;;;;;;4943251;29;20106;-58
2022/03/17 01:42:22;;;;;;;29.20;19.52;;;10.00;99.90;;;;;;4942957;29;20040;-57
2022/03/17 01:44:50;;;;;;;31.48;19.92;;;9.90;99.90;;;;;;4944481;29;20059;-58
2022/03/17 01:47:28;;;;;;;30.20;20.48;;;9.90;99.90;;;;;;4943994;29;20056;-57
2022/03/17 01:49:59;;;;;;;32.03;21.00;;;9.90;99.90;;;;;;4943514;29;20040;-57
2022/03/17 01:52:25;;;;;;;32.13;19.77;;;9.90;99.90;;;;;;4963659;28;20065;-58
2022/03/17 01:54:51;;;;;;;33.40;21.40;;;9.90;99.90;;;;;;4962179;29;20454;-58
2022/03/17 01:57:17;;;;;;;31.38;20.25;;;9.90;99.90;;;;;;4963830;28;20051;-58
2022/03/17 01:59:43;;;;;;;29.17;20.20;;;9.90;99.90;;;;;;4962757;29;20047;-58
2022/03/17 02:02:12;;;;;;;34.20;20.73;;;9.90;99.90;;;;;;4963137;28;20107;-58
2022/03/17 02:04:41;;;;;;;30.00;19.48;;;9.90;99.90;;;;;;4963463;28;20058;-58
2022/03/17 02:07:08;;;;;;;29.40;19.77;;;9.80;99.90;;;;;;4962077;28;20043;-56
2022/03/17 02:09:35;;;;;;;33.63;20.88;;;10.00;99.90;;;;;;4963654;28;20044;-58
2022/03/17 02:14:54;;;;;;;30.90;19.15;;;10.00;99.90;;;;;;4967004;29;20062;-58
2022/03/17 02:17:21;;;;;;;32.03;21.45;;;10.00;99.90;;;;;;4966849;28;20075;-58
2022/03/17 02:19:46;;;;;;;29.83;20.30;;;10.00;99.90;;;;;;4965859;28;20039;-58
2022/03/17 02:22:15;;;;;;;31.52;20.25;;;10.00;99.90;;;;;;4965882;28;20039;-58
2022/03/17 02:27:29;;;;;;;33.00;19.77;;;10.00;99.90;;;;;;4966952;29;20136;-57
2022/03/17 02:29:55;;;;;;;28.90;19.90;;;10.00;99.90;;;;;;4966204;28;20491;-58
2022/03/17 02:32:21;;;;;;;32.00;20.55;;;10.00;99.90;;;;;;4966020;29;20073;-57
2022/03/17 02:34:47;;;;;;;33.55;21.90;;;10.00;99.90;;;;;;4966944;29;20039;-58
2022/03/17 02:37:13;;;;;;;34.45;21.98;;;9.90;99.90;;;;;;4965283;28;20410;-57
2022/03/17 02:39:39;;;;;;;31.92;21.80;;;10.00;99.90;;;;;;4966714;28;20623;-58
2022/03/17 02:42:05;;;;;;;33.92;21.70;;;10.00;99.90;;;;;;4964998;29;20039;-58
2022/03/17 02:44:32;;;;;;;33.05;22.38;;;10.00;99.90;;;;;;4966719;28;20051;-58
2022/03/17 02:46:58;;;;;;;35.53;21.80;;;9.90;99.90;;;;;;4965711;28;20091;-58
2022/03/17 02:49:26;;;;;;;34.13;22.77;;;10.00;99.90;;;;;;4965846;29;20043;-59
2022/03/17 02:51:53;;;;;;;34.22;22.70;;;10.00;99.90;;;;;;4966556;29;20075;-58
2022/03/17 02:54:19;;;;;;;31.67;21.15;;;10.00;99.90;;;;;;4964976;28;20077;-58
2022/03/17 02:56:45;;;;;;;31.08;21.80;;;10.00;99.90;;;;;;4966342;28;20150;-58
2022/03/17 02:59:10;;;;;;;33.47;22.35;;;10.00;99.90;;;;;;4964790;29;20036;-58
2022/03/17 03:01:36;;;;;;;33.88;22.77;;;10.00;99.90;;;;;;4965853;29;20055;-58
2022/03/17 03:04:02;;;;;;;35.78;22.13;;;10.00;99.90;;;;;;4965148;29;20043;-57
2022/03/17 03:06:28;;;;;;;32.92;20.75;;;10.00;99.90;;;;;;4964144;29;20051;-58
2022/03/17 03:08:53;;;;;;;31.00;20.65;;;10.00;99.90;;;;;;4966203;29;20062;-58
2022/03/17 03:11:19;;;;;;;31.00;20.80;;;10.10;99.90;;;;;;4964620;29;20049;-57
2022/03/17 03:13:44;;;;;;;34.60;20.90;;;10.00;99.90;;;;;;4965889;28;20054;-57
2022/03/17 03:16:13;;;;;;;32.63;21.55;;;10.00;99.90;;;;;;4964378;29;20043;-57
2022/03/17 03:18:39;;;;;;;32.30;21.80;;;10.00;99.90;;;;;;4966192;28;20067;-57
2022/03/17 03:21:07;;;;;;;30.30;21.27;;;10.10;99.90;;;;;;4964663;28;20039;-58
2022/03/17 03:23:33;;;;;;;34.65;24.63;;;10.10;99.90;;;;;;4965558;28;20055;-57
2022/03/17 03:25:59;;;;;;;33.55;20.95;;;10.10;99.90;;;;;;4965652;28;20103;-57
2022/03/17 03:28:25;;;;;;;32.40;21.67;;;10.10;99.90;;;;;;4964432;28;20621;-58
2022/03/17 03:30:53;;;;;;;31.88;21.50;;;10.10;99.90;;;;;;4965866;28;20062;-57
2022/03/17 03:33:18;;;;;;;32.38;22.85;;;10.10;99.90;;;;;;4964145;29;20047;-58
2022/03/17 03:38:28;;;;;;;33.60;22.17;;;10.10;99.90;;;;;;4964943;29;20079;-58
2022/03/17 03:40:54;;;;;;;33.22;22.60;;;10.10;99.90;;;;;;4963256;29;20039;-57
2022/03/17 03:43:19;;;;;;;33.20;23.27;;;10.10;99.90;;;;;;4965738;29;20155;-58
2022/03/17 03:45:45;;;;;;;37.45;24.05;;;10.20;99.90;;;;;;4962432;29;20039;-58
2022/03/17 03:48:11;;;;;;;34.60;23.33;;;10.20;99.90;;;;;;4964197;29;20081;-58
2022/03/17 03:50:37;;;;;;;33.08;22.55;;;10.20;99.90;;;;;;4963864;29;20458;-58
2022/03/17 03:53:03;;;;;;;34.45;25.27;;;10.20;99.90;;;;;;4965352;29;20047;-58
2022/03/17 03:55:29;;;;;;;34.78;24.58;;;10.20;99.90;;;;;;4963358;29;20047;-58
2022/03/17 03:57:55;;;;;;;34.10;23.73;;;10.20;99.90;;;;;;4964678;29;20036;-58
2022/03/17 04:02:53;;;;;;;40.55;30.52;;;10.00;99.90;;;;;;4962955;28;20051;-58
2022/03/17 04:05:26;;;;;;;36.90;26.33;;;9.90;99.90;;;;;;4963724;29;20055;-57
2022/03/17 04:07:52;;;;;;;40.90;26.92;;;9.90;99.90;;;;;;4962355;28;20054;-58
2022/03/17 04:10:18;;;;;;;37.53;27.08;;;9.80;99.90;;;;;;4962470;29;20058;-58
2022/03/17 04:12:44;;;;;;;40.20;29.00;;;9.70;99.90;;;;;;4962382;28;20435;-58
2022/03/17 04:15:09;;;;;;;43.45;29.00;;;9.60;99.90;;;;;;4962960;29;20110;-59
2022/03/17 04:17:35;;;;;;;42.53;29.45;;;9.70;99.90;;;;;;4962970;29;20043;-58
2022/03/17 04:20:01;;;;;;;43.10;29.65;;;9.60;99.90;;;;;;4962638;28;20050;-59
2022/03/17 04:22:27;;;;;;;46.25;31.10;;;9.60;99.90;;;;;;4963476;29;20482;-59
2022/03/17 04:24:53;;;;;;;47.67;31.75;;;9.60;99.90;;;;;;4962036;28;20046;-59
2022/03/17 04:27:19;;;;;;;45.35;31.25;;;9.50;99.90;;;;;;4963571;28;20102;-60
2022/03/17 04:29:45;;;;;;;46.55;31.75;;;9.40;99.90;;;;;;4962454;29;20407;-59
2022/03/17 04:32:11;;;;;;;51.20;32.40;;;9.40;99.90;;;;;;4962869;28;20054;-59
2022/03/17 04:34:37;;;;;;;52.20;31.95;;;9.30;99.90;;;;;;4961831;28;20055;-59
2022/03/17 04:37:03;;;;;;;50.75;32.90;;;9.30;99.90;;;;;;4962418;29;20097;-59
2022/03/17 04:39:28;;;;;;;50.88;31.90;;;9.40;99.90;;;;;;4962998;29;20447;-59
2022/03/17 04:41:54;;;;;;;56.90;36.30;;;9.30;99.90;;;;;;4961766;29;20055;-59
2022/03/17 04:44:20;;;;;;;59.42;35.08;;;9.20;99.90;;;;;;4963250;29;20055;-60
2022/03/17 04:46:47;;;;;;;58.67;36.95;;;9.30;99.90;;;;;;4961726;29;20047;-60
2022/03/17 04:49:13;;;;;;;59.25;37.42;;;9.20;99.90;;;;;;4962815;29;20051;-60
2022/03/17 04:51:38;;;;;;;67.75;38.83;;;9.20;99.90;;;;;;4962497;29;20051;-60
2022/03/17 04:54:06;;;;;;;62.47;38.53;;;9.30;99.90;;;;;;4962068;29;20491;-61
2022/03/17 04:56:31;;;;;;;75.30;43.42;;;9.30;99.90;;;;;;4962898;29;20057;-60
2022/03/17 04:58:57;;;;;;;75.13;43.10;;;9.30;99.90;;;;;;4961550;28;20035;-60
2022/03/17 05:01:23;;;;;;;66.68;37.95;;;9.20;99.90;;;;;;4963079;29;20073;-60
2022/03/17 05:03:49;;;;;;;57.85;35.35;;;9.20;99.90;;;;;;4961177;29;20046;-60
2022/03/17 05:06:16;;;;;;;33.22;20.98;;;9.10;99.90;;;;;;4962617;29;20047;-60
2022/03/17 05:08:42;;;;;;;32.13;18.67;;;9.20;99.90;;;;;;4960923;29;20063;-56
2022/03/17 05:11:09;;;;;;;18.85;12.57;;;9.00;99.90;;;;;;4961884;28;20043;-59
2022/03/17 05:13:36;;;;;;;17.73;11.00;;;8.70;99.90;;;;;;4962185;28;20059;-60
2022/03/17 05:16:02;;;;;;;19.88;10.82;;;8.50;99.90;;;;;;4961509;28;20047;-61
2022/03/17 05:18:28;;;;;;;16.85;10.93;;;8.40;99.90;;;;;;4962873;28;20074;-60
2022/03/17 05:20:54;;;;;;;19.48;11.75;;;8.40;99.90;;;;;;4961307;29;20399;-60
2022/03/17 05:23:20;;;;;;;19.67;11.88;;;8.30;99.90;;;;;;4962644;28;20040;-61
2022/03/17 05:25:48;;;;;;;18.00;10.80;;;8.20;99.90;;;;;;4961820;28;20043;-61
2022/03/17 05:28:14;;;;;;;13.70;8.65;;;8.20;99.90;;;;;;4961685;28;20047;-61
2022/03/17 05:30:41;;;;;;;15.60;9.57;;;8.10;99.90;;;;;;4962498;28;20039;-61
2022/03/17 05:33:09;;;;;;;18.17;10.52;;;8.00;99.90;;;;;;4961227;28;20039;-61
2022/03/17 05:35:35;;;;;;;15.18;9.32;;;7.90;99.90;;;;;;4962727;28;20071;-60
2022/03/17 05:38:01;;;;;;;16.52;8.82;;;7.90;99.90;;;;;;4961173;29;20042;-59
2022/03/17 05:40:27;;;;;;;18.52;10.05;;;7.80;99.90;;;;;;4962452;29;20394;-60
2022/03/17 05:42:58;;;;;;;26.75;12.93;;;7.70;99.90;;;;;;4961775;29;20454;-59
2022/03/17 05:45:26;;;;;;;27.15;13.52;;;7.60;99.90;;;;;;4962537;28;20055;-60
2022/03/17 05:47:53;;;;;;;20.60;12.70;;;7.60;99.90;;;;;;4964676;29;20055;-59
2022/03/17 05:50:21;;;;;;;26.80;13.00;;;7.50;99.90;;;;;;4965172;28;20047;-58
2022/03/17 05:52:48;;;;;;;28.38;14.40;;;7.60;99.90;;;;;;4966530;28;20054;-55
2022/03/17 05:55:16;;;;;;;27.30;12.95;;;7.70;99.90;;;;;;4965100;28;20043;-58
2022/03/17 05:57:45;;;;;;;23.52;11.50;;;7.40;99.90;;;;;;4965978;28;20098;-58
2022/03/17 06:00:13;;;;;;;22.38;9.32;;;7.50;99.90;;;;;;4965617;28;20058;-59
2022/03/17 06:02:39;;;;;;;25.52;10.90;;;7.40;99.90;;;;;;4965397;28;20051;-58
2022/03/17 06:05:07;;;;;;;20.35;8.38;;;7.30;99.90;;;;;;4965688;28;20050;-58
2022/03/17 06:07:46;;;;;;;21.05;9.10;;;7.40;99.90;;;;;;4964572;28;20058;-58
2022/03/17 06:10:18;;;;;;;15.77;7.07;;;7.40;99.90;;;;;;4966168;28;20043;-58
2022/03/17 06:12:44;;;;;;;20.70;6.40;;;7.30;99.90;;;;;;4964768;28;20110;-57
2022/03/17 06:15:11;;;;;;;18.10;7.05;;;7.20;99.90;;;;;;4963925;28;20039;-58
2022/03/17 06:17:41;;;;;;;18.05;6.28;;;7.30;99.90;;;;;;4965168;28;20075;-58
2022/03/17 06:20:13;;;;;;;20.08;5.78;;;7.30;99.90;;;;;;4960024;28;20035;-58
2022/03/17 06:22:43;;;;;;;17.20;5.57;;;7.20;99.90;;;;;;4962254;28;20070;-58
2022/03/17 06:25:11;;;;;;;16.35;5.38;;;7.30;99.90;;;;;;4960383;28;20298;-58
2022/03/17 06:27:37;;;;;;;13.13;5.10;;;7.30;99.90;;;;;;4961779;28;20051;-58
2022/03/17 06:30:05;;;;;;;20.83;6.05;;;7.30;99.90;;;;;;4960860;29;20060;-58
2022/03/17 06:32:31;;;;;;;12.73;5.18;;;7.30;99.90;;;;;;4961270;28;20530;-58
2022/03/17 06:34:57;;;;;;;12.60;4.35;;;7.30;99.90;;;;;;4961488;28;20047;-58
2022/03/17 06:37:22;;;;;;;15.70;4.47;;;7.30;99.90;;;;;;4960511;28;20651;-57
2022/03/17 06:39:48;;;;;;;21.27;4.78;;;7.30;99.90;;;;;;4959902;29;20066;-58
2022/03/17 06:42:14;;;;;;;12.55;3.88;;;7.30;99.90;;;;;;4959800;29;20422;-57
2022/03/17 06:44:39;;;;;;;18.45;3.97;;;7.30;99.90;;;;;;4961699;29;20757;-57
2022/03/17 06:47:05;;;;;;;12.43;3.45;;;7.20;99.90;;;;;;4957463;29;20043;-57
2022/03/17 06:49:31;;;;;;;13.30;3.13;;;7.20;99.90;;;;;;4950731;29;20138;-58
2022/03/17 06:51:57;;;;;;;8.48;2.53;;;7.30;99.90;;;;;;4951920;29;20052;-57
2022/03/17 06:54:22;;;;;;;8.73;2.67;;;7.20;99.90;;;;;;4948772;29;20058;-58
2022/03/17 06:56:48;;;;;;;15.25;2.97;;;7.20;99.90;;;;;;4951059;29;20515;-57
2022/03/17 06:59:14;;;;;;;11.13;2.33;;;7.20;99.90;;;;;;4948972;29;20063;-58
2022/03/17 07:01:39;;;;;;;12.48;2.30;;;7.20;99.90;;;;;;4961296;29;20047;-57
2022/03/17 07:04:05;;;;;;;11.38;2.20;;;7.20;99.90;;;;;;4957422;28;20054;-56
2022/03/17 07:06:31;;;;;;;12.23;1.90;;;7.10;99.90;;;;;;4950786;29;20048;-58
2022/03/17 07:08:56;;;;;;;9.77;2.58;;;7.10;99.90;;;;;;4949819;29;20102;-57
2022/03/17 07:11:22;;;;;;;12.40;2.53;;;7.20;99.90;;;;;;4950794;29;20047;-58
2022/03/17 07:13:48;;;;;;;9.73;1.88;;;7.20;99.90;;;;;;4950810;29;20115;-57
2022/03/17 07:16:13;;;;;;;9.25;2.42;;;7.20;99.90;;;;;;4948319;28;20054;-57
2022/03/17 07:18:39;;;;;;;12.27;2.15;;;7.20;99.90;;;;;;4953941;29;20062;-57
2022/03/17 07:21:05;;;;;;;10.43;2.17;;;7.20;99.90;;;;;;4960062;29;20044;-57
2022/03/17 07:23:31;;;;;;;10.73;2.13;;;7.20;99.90;;;;;;4960655;29;20090;-57
2022/03/17 07:25:58;;;;;;;11.52;2.35;;;7.30;99.90;;;;;;4943315;29;20091;-57
2022/03/17 07:28:23;;;;;;;14.52;2.67;;;7.20;99.90;;;;;;4940847;29;20040;-53
2022/03/17 07:30:49;;;;;;;15.82;2.00;;;7.10;99.90;;;;;;4939787;29;20086;-58
2022/03/17 07:33:15;;;;;;;10.75;2.10;;;7.20;99.90;;;;;;4940114;29;20475;-58
2022/03/17 07:35:40;;;;;;;12.00;2.10;;;7.20;99.90;;;;;;4940442;29;20053;-57
2022/03/17 07:38:06;;;;;;;13.88;2.30;;;7.20;99.90;;;;;;4940083;29;20103;-57
2022/03/17 07:40:32;;;;;;;14.68;2.42;;;7.20;99.90;;;;;;4941267;29;20061;-57
2022/03/17 07:43:00;;;;;;;14.50;2.08;;;7.10;99.90;;;;;;4940364;29;20051;-59
2022/03/17 07:45:26;;;;;;;23.90;2.88;;;7.10;99.90;;;;;;4940357;29;20079;-58
2022/03/17 07:47:52;;;;;;;14.13;2.47;;;7.30;99.90;;;;;;4941031;29;20377;-57
2022/03/17 07:50:18;;;;;;;16.08;1.88;;;7.20;99.90;;;;;;4940792;29;20067;-57
2022/03/17 07:52:44;;;;;;;15.88;3.15;;;7.30;99.90;;;;;;4959106;29;20069;-58
2022/03/17 07:55:10;;;;;;;12.88;2.55;;;7.20;99.90;;;;;;4957710;28;20078;-57
2022/03/17 07:57:37;;;;;;;13.20;2.60;;;7.20;99.90;;;;;;4957672;29;20039;-58
2022/03/17 08:00:04;;;;;;;11.38;1.77;;;7.20;99.90;;;;;;4959107;28;20534;-57
2022/03/17 08:02:31;;;;;;;19.42;2.97;;;7.20;99.90;;;;;;4957902;29;20039;-57
2022/03/17 08:04:56;;;;;;;11.90;2.35;;;7.20;99.90;;;;;;4959717;28;20051;-57
2022/03/17 08:07:22;;;;;;;17.10;2.50;;;7.20;99.90;;;;;;4958265;28;20099;-59
2022/03/17 08:09:48;;;;;;;17.42;2.58;;;7.20;99.90;;;;;;4960276;28;20062;-57
2022/03/17 08:12:14;;;;;;;17.42;2.80;;;7.30;99.90;;;;;;4958622;28;20094;-57
2022/03/17 08:14:40;;;;;;;21.58;3.17;;;7.20;99.90;;;;;;4959447;29;20198;-57
2022/03/17 08:17:06;;;;;;;14.00;2.83;;;7.20;99.90;;;;;;4958988;29;20075;-57
2022/03/17 08:19:31;;;;;;;20.00;3.70;;;7.20;99.90;;;;;;4958564;29;20035;-57
2022/03/17 08:21:58;;;;;;;18.52;3.05;;;7.20;99.90;;;;;;4959309;28;20047;-56
2022/03/17 08:24:24;;;;;;;20.45;3.70;;;7.20;99.90;;;;;;4959008;28;20043;-57
2022/03/17 08:26:52;;;;;;;14.25;2.20;;;7.30;99.90;;;;;;4959470;28;20376;-57
2022/03/17 08:29:18;;;;;;;19.02;3.08;;;7.30;99.90;;;;;;4958120;29;20090;-57
2022/03/17 08:31:44;;;;;;;13.75;2.58;;;7.30;99.90;;;;;;4959089;29;20051;-57
2022/03/17 08:34:09;;;;;;;16.85;3.28;;;7.30;99.90;;;;;;4958825;28;20051;-58
2022/03/17 08:36:35;;;;;;;12.40;2.00;;;7.20;99.90;;;;;;4958819;29;20035;-58
2022/03/17 08:39:01;;;;;;;12.50;2.33;;;7.20;99.90;;;;;;4959274;29;20036;-57
2022/03/17 08:41:27;;;;;;;17.33;3.08;;;7.20;99.90;;;;;;4958209;29;20589;-57
2022/03/17 08:43:53;;;;;;;13.48;2.97;;;7.20;99.90;;;;;;4958861;29;20039;-57
2022/03/17 08:49:20;;;;;;;10.93;2.83;;;7.10;99.90;;;;;;4958765;29;20082;-57
2022/03/17 08:51:46;;;;;;;10.45;2.75;;;7.20;99.90;;;;;;4958918;28;20054;-57
2022/03/17 08:54:12;;;;;;;12.95;2.17;;;7.20;99.90;;;;;;4957871;28;20463;-57
2022/03/17 08:56:38;;;;;;;10.93;2.10;;;7.20;99.90;;;;;;4959048;28;20094;-57
2022/03/17 08:59:05;;;;;;;15.95;2.85;;;7.20;99.90;;;;;;4957849;29;20050;-57
2022/03/17 09:01:31;;;;;;;15.75;2.55;;;7.30;99.90;;;;;;4958897;28;20054;-57
2022/03/17 09:03:57;;;;;;;10.65;2.35;;;7.30;99.90;;;;;;4957829;28;20047;-58
2022/03/17 09:06:24;;;;;;;14.70;2.30;;;7.30;99.90;;;;;;4958129;29;20069;-58
2022/03/17 09:08:50;;;;;;;13.40;2.25;;;7.40;99.90;;;;;;4955295;28;20102;-58
2022/03/17 09:11:16;;;;;;;14.13;3.05;;;7.30;99.90;;;;;;4958168;29;20051;-58
2022/03/17 09:13:42;;;;;;;11.27;2.33;;;7.40;99.90;;;;;;4958838;29;20110;-58
2022/03/17 09:16:08;;;;;;;16.40;2.35;;;7.20;99.90;;;;;;4957398;29;20051;-58
2022/03/17 09:18:34;;;;;;;14.80;2.72;;;7.30;99.90;;;;;;4958618;28;20126;-57
2022/03/17 09:21:00;;;;;;;17.27;2.90;;;7.40;99.90;;;;;;4957375;28;20058;-57
2022/03/17 09:23:29;;;;;;;11.80;2.42;;;7.50;99.90;;;;;;4958648;28;20098;-57
2022/03/17 09:25:55;;;;;;;14.25;3.15;;;7.60;99.90;;;;;;4941908;28;20043;-57
2022/03/17 09:28:22;;;;;;;11.43;2.42;;;7.70;99.90;;;;;;4938507;29;20063;-57
2022/03/17 09:30:51;;;;;;;15.93;2.20;;;7.80;99.90;;;;;;4938973;29;20083;-57
2022/03/17 09:33:17;;;;;;;17.08;4.20;;;7.90;99.90;;;;;;4938297;29;20604;-56
2022/03/17 09:35:43;;;;;;;15.93;2.47;;;7.90;99.90;;;;;;4939854;29;20051;-57
2022/03/17 09:38:10;;;;;;;17.15;2.35;;;7.90;99.90;;;;;;4938595;29;20047;-57
2022/03/17 09:40:38;;;;;;;12.63;1.77;;;7.90;99.90;;;;;;4938988;29;20813;-57
2022/03/17 09:43:21;;;;;;;14.38;2.85;;;8.00;99.90;;;;;;4938464;29;20055;-56
2022/03/17 09:45:50;;;;;;;15.50;2.80;;;8.10;99.90;;;;;;4937062;29;20147;-57
2022/03/17 09:48:17;;;;;;;9.00;2.03;;;8.10;99.90;;;;;;4939754;29;20087;-57
2022/03/17 09:50:45;;;;;;;12.98;2.80;;;8.20;99.90;;;;;;4936839;29;20040;-57
2022/03/17 09:53:10;;;;;;;12.35;2.08;;;8.10;99.90;;;;;;4938078;29;20052;-57
2022/03/17 09:55:37;;;;;;;15.55;3.25;;;8.10;99.90;;;;;;4938322;29;20048;-57
2022/03/17 09:58:06;;;;;;;11.88;2.42;;;8.10;99.90;;;;;;4938744;29;20047;-57
2022/03/17 10:03:27;;;;;;;11.13;1.98;;;8.30;99.90;;;;;;4937921;29;20079;-57
2022/03/17 10:05:55;;;;;;;13.05;1.90;;;8.40;99.90;;;;;;4939301;29;20055;-57
2022/03/17 10:08:23;;;;;;;12.25;2.28;;;8.50;99.90;;;;;;4938016;29;20055;-57
2022/03/17 10:10:51;;;;;;;14.55;2.60;;;8.50;99.90;;;;;;4938737;29;20198;-57
2022/03/17 10:13:17;;;;;;;12.07;2.00;;;8.60;99.90;;;;;;4957246;29;20087;-57
2022/03/17 10:15:47;;;;;;;15.35;2.67;;;8.50;99.90;;;;;;4956684;28;20043;-57
2022/03/17 10:18:23;;;;;;;14.95;2.05;;;8.40;99.90;;;;;;4957493;28;20127;-57
2022/03/17 10:21:24;;;;;;;12.00;2.72;;;8.60;99.90;;;;;;4956007;29;20054;-56
2022/03/17 10:23:55;;;;;;;10.27;2.00;;;8.40;99.90;;;;;;4944558;28;20055;-57
2022/03/17 10:26:35;;;;;;;12.80;2.30;;;8.20;99.90;;;;;;4942220;29;20055;-57
2022/03/17 10:29:05;;;;;;;12.05;2.40;;;8.30;99.90;;;;;;4940566;29;20052;-56
2022/03/17 10:31:32;;;;;;;11.20;2.30;;;8.40;99.90;;;;;;4943671;29;20126;-56
2022/03/17 10:33:58;;;;;;;13.27;2.25;;;8.60;99.90;;;;;;4945372;29;20064;-57
2022/03/17 10:36:23;;;;;;;11.65;2.13;;;8.70;99.90;;;;;;4945942;29;20075;-58
2022/03/17 10:38:49;;;;;;;13.55;2.40;;;8.60;99.90;;;;;;4945887;29;20059;-57
2022/03/17 10:41:16;;;;;;;12.77;2.88;;;8.80;99.90;;;;;;4943842;29;20103;-57
2022/03/17 10:43:42;;;;;;;12.25;2.40;;;9.10;99.90;;;;;;4946024;29;20047;-57
2022/03/17 10:46:18;;;;;;;14.88;2.50;;;9.20;99.90;;;;;;4944479;29;20446;-57
2022/03/17 10:49:00;;;;;;;12.52;2.20;;;9.20;99.90;;;;;;4946163;29;20067;-57
2022/03/17 10:51:38;;;;;;;15.23;2.83;;;9.50;99.90;;;;;;4945553;29;20043;-56
2022/03/17 10:54:15;;;;;;;14.07;2.63;;;9.10;99.90;;;;;;4944970;29;20051;-57
2022/03/17 10:56:41;;;;;;;14.38;2.13;;;9.00;99.90;;;;;;4944644;29;20048;-57
2022/03/17 10:59:08;;;;;;;11.68;2.40;;;9.00;99.90;;;;;;4944525;29;20051;-57
2022/03/17 11:01:45;;;;;;;14.48;2.90;;;8.80;99.90;;;;;;4945892;29;20040;-56
2022/03/17 11:04:11;;;;;;;12.63;2.35;;;9.00;99.90;;;;;;4951485;29;20035;-57
2022/03/17 11:06:39;;;;;;;11.60;2.70;;;9.10;99.90;;;;;;4964142;28;20155;-57
2022/03/17 11:09:08;;;;;;;13.68;2.70;;;8.90;99.90;;;;;;4964833;28;20039;-57
2022/03/17 11:11:39;;;;;;;14.07;3.08;;;9.00;99.90;;;;;;4963714;28;20085;-57
2022/03/17 11:14:05;;;;;;;13.90;2.10;;;9.20;99.90;;;;;;4963440;29;20051;-57
2022/03/17 11:16:39;;;;;;;12.55;2.22;;;9.50;99.90;;;;;;4963417;29;20051;-57
2022/03/17 11:19:07;;;;;;;15.27;2.17;;;9.50;99.90;;;;;;4964262;28;20077;-57
2022/03/17 11:21:33;;;;;;;11.80;2.28;;;9.30;99.90;;;;;;4963001;29;20055;-57
2022/03/17 11:24:04;;;;;;;12.45;2.00;;;9.30;99.90;;;;;;4963590;28;20055;-57
2022/03/17 11:26:39;;;;;;;11.52;2.47;;;9.30;99.90;;;;;;4964452;28;20047;-57
2022/03/17 11:29:06;;;;;;;14.18;2.75;;;9.40;99.90;;;;;;4963245;28;20094;-56
2022/03/17 11:32:01;;;;;;;12.27;2.50;;;9.90;99.90;;;;;;4964544;28;20099;-58
2022/03/17 11:34:48;;;;;;;13.93;2.50;;;9.70;99.90;;;;;;4946355;29;20047;-56
2022/03/17 11:37:26;;;;;;;12.57;2.53;;;9.80;99.90;;;;;;4963319;28;20515;-57
2022/03/17 11:39:56;;;;;;;10.20;2.58;;;10.00;99.90;;;;;;4964519;28;20054;-57
2022/03/17 11:42:35;;;;;;;11.70;2.92;;;9.90;99.90;;;;;;4962827;28;20055;-57
2022/03/17 11:45:31;;;;;;;13.88;2.25;;;10.10;99.90;;;;;;4963706;28;20118;-57
2022/03/17 11:47:58;;;;;;;10.68;1.70;;;10.10;99.90;;;;;;4947607;28;20059;-57
2022/03/17 11:50:28;;;;;;;11.43;2.05;;;9.90;99.90;;;;;;4963018;28;20047;-57
2022/03/17 11:53:01;;;;;;;10.57;2.00;;;9.60;99.90;;;;;;4964102;28;20098;-57
2022/03/17 11:55:46;;;;;;;8.32;1.95;;;9.90;99.90;;;;;;4963349;29;20106;-57
2022/03/17 11:58:39;;;;;;;10.43;2.33;;;9.90;99.90;;;;;;4963240;29;20051;-56
2022/03/17 12:01:27;;;;;;;8.85;2.00;;;10.10;99.90;;;;;;4964198;29;20055;-57
2022/03/17 12:03:57;;;;;;;15.00;2.45;;;9.90;99.90;;;;;;4962813;28;20047;-57
2022/03/17 12:06:38;;;;;;;15.88;2.92;;;9.80;99.90;;;;;;4963444;28;20047;-57
2022/03/17 12:09:04;;;;;;;12.82;2.75;;;10.00;99.90;;;;;;4963705;28;20059;-57
2022/03/17 12:11:32;;;;;;;15.65;3.22;;;10.00;99.90;;;;;;4962684;28;20040;-57
2022/03/17 12:14:14;;;;;;;11.65;2.33;;;9.90;99.90;;;;;;4963678;28;20135;-57
2022/03/17 12:16:51;;;;;;;;;;;9.90;99.90;;;;;;4962851;28;20058;-57
2022/03/17 12:19:40;;;;;;;12.00;3.30;;;9.80;99.90;;;;;;4977804;28;19923;-57
2022/03/17 12:22:20;;;;;;;12.88;2.38;;;9.90;99.90;;;;;;4963473;28;20055;-57
2022/03/17 12:24:49;;;;;;;10.80;2.50;;;10.10;99.90;;;;;;4962051;28;20047;-57
2022/03/17 12:27:18;;;;;;;11.15;2.03;;;10.00;99.90;;;;;;4963783;28;20051;-57
2022/03/17 12:29:46;;;;;;;13.50;2.63;;;10.20;99.90;;;;;;4962828;28;20398;-57
2022/03/17 12:32:12;;;;;;;11.57;2.63;;;10.40;99.90;;;;;;4962476;28;20514;-57
2022/03/17 12:34:39;;;;;;;10.63;2.83;;;10.30;99.90;;;;;;4963097;29;20411;-54
2022/03/17 12:37:06;;;;;;;15.32;2.58;;;10.30;99.90;;;;;;4961994;28;20047;-57
2022/03/17 12:39:34;;;;;;;13.38;2.38;;;10.40;99.90;;;;;;4963208;28;20031;-56
2022/03/17 12:42:00;;;;;;;13.02;3.00;;;10.00;99.90;;;;;;4961762;28;20075;-57
2022/03/17 12:44:27;;;;;;;12.90;2.30;;;9.90;99.90;;;;;;4962694;28;20051;-57
2022/03/17 12:46:54;;;;;;;15.07;2.70;;;10.00;99.90;;;;;;4961841;28;20511;-56
2022/03/17 12:49:20;;;;;;;13.63;2.22;;;9.80;99.90;;;;;;4962270;28;20043;-58
2022/03/17 12:51:48;;;;;;;14.05;2.70;;;10.00;99.90;;;;;;4962842;28;20253;-57
2022/03/17 12:54:14;;;;;;;11.55;2.40;;;10.10;99.90;;;;;;4960922;28;20449;-57
2022/03/17 12:56:52;;;;;;;14.70;2.85;;;10.00;99.90;;;;;;4962740;28;20082;-57
2022/03/17 12:59:18;;;;;;;16.10;3.60;;;10.10;99.90;;;;;;4961731;28;20039;-57
2022/03/17 13:01:46;;;;;;;9.20;2.00;;;10.10;99.90;;;;;;4962702;28;20031;-57
2022/03/17 13:04:12;;;;;;;12.63;2.25;;;10.10;99.90;;;;;;4962300;28;20054;-57
2022/03/17 13:06:54;;;;;;;11.93;2.42;;;10.20;99.90;;;;;;4961906;28;20047;-57
2022/03/17 13:09:30;;;;;;;9.32;1.95;;;10.20;99.90;;;;;;4962883;28;20051;-57
2022/03/17 13:14:56;;;;;;;10.60;2.05;;;10.30;99.90;;;;;;4961906;29;20055;-57
2022/03/17 13:17:36;;;;;;;16.60;2.67;;;10.20;99.90;;;;;;4961740;28;20296;-57
2022/03/17 13:20:06;;;;;;;16.92;3.55;;;10.40;99.90;;;;;;4961675;28;20107;-57